Aviation Digital Data Service (ADDS)

Output produced by METARs form (0726 UTC 21 February 2017)
found at http://www.aviationweather.gov/adds/metars/
 
KSBY 210654Z AUTO 05004KT 10SM CLR 03/M01 A3032 RMK AO2 SLP269 T00331011 TSNO
KSBY 210520Z 2106/2206 08003KT P6SM BKN250 
     FM211500 14007KT P6SM BKN250